Etusivu
METAR-TAF:

METAR-TAF

Lentoasemat :

Dortmund, Saksa

Leveyspiiri: 51-31N, Pituuspiiri: 007-37E, korkeus merenpinnasta: 127 m

Tämänhetkinen sää

Tämä raportti tehtiin 20 minuuttia sitten, kello 15.20 UTC
Tuuli 3 kn eri suunnista
Lämpötila 16°C
Kosteus 48%
Ilmanpaine 1032 hPa
Näkyvyys 10 km tai enemmän
ei pilviä alle 1500 m:ssä eikä cumulonimbus-pilviä

METAR: EDLW 211520Z VRB03KT CAVOK 16/05 Q1032

Aika: 16:40 (15:40 UTC)

Sääennuste

Tämä raportti tehtiin 4 tuntia ja 40 minuuttia sitten, kello 11.00 UTC
Ennuste voimassa 21. päivästä klo 12 UTC - 22. päivään klo 12 UTC
Tuuli 5 kn lännestä
Näkyvyys 10 km tai enemmän
ei pilviä alle 1500 m:ssä eikä cumulonimbus-pilviä
Tulossa
21. päivästä klo 12 UTC - 21. päivään klo 15 UTC
Tuuli 3 kn eri suunnista
Tulossa
22. päivästä klo 00 UTC - 22. päivään klo 03 UTC
Tuuli 5 kn etelästä/kaakosta

TAF: EDLW 211100Z 2112/2212 26005KT CAVOK BECMG 2112/2115 VRB03KT BECMG 2200/2203 15005KT

Säähavainnot ja -ennusteet yli 4000 lentoasemalta (METAR- ja TAF-raportit).

Käytössä olevat sääasemat on merkitty karttaan keltaisilla ja punaisilla pisteillä.

Aseta hiiri pisteen päälle nähdäksesi sääaseman nimen.

Klikkaa sitten nähdäksesi säähavainnot ja -ennusteet.

Kartan vaihtaminen: klikkaa mustalla rastilla varustettuja vihreitä pisteitä, niin voit zoomata sisään; viivalla varustettua vihreää pistettä, niin voit zoomata ulos tai vihreitä nuolia, niin pääset viereisille kartoille.


METAR-TAF: